createdAt,value
2023-02-17T00:01:32.348Z,3.65
2023-02-17T00:03:59.772Z,3.60
2023-02-17T00:06:28.600Z,3.58
2023-02-17T00:08:55.924Z,3.65
2023-02-17T00:11:25.027Z,3.30
2023-02-17T00:13:55.206Z,3.38
2023-02-17T00:16:25.932Z,3.20
2023-02-17T00:18:55.238Z,3.33
2023-02-17T00:21:24.204Z,2.90
2023-02-17T00:23:53.533Z,3.50
2023-02-17T00:26:21.395Z,2.88
2023-02-17T00:28:48.980Z,3.00
2023-02-17T00:31:23.710Z,3.13
2023-02-17T00:33:50.616Z,3.10
2023-02-17T00:36:19.814Z,3.38
2023-02-17T00:38:50.910Z,3.75
2023-02-17T00:41:18.711Z,3.50
2023-02-17T00:43:45.947Z,3.78
2023-02-17T00:46:14.371Z,3.38
2023-02-17T00:48:41.343Z,3.42
2023-02-17T00:51:08.153Z,3.60
2023-02-17T00:53:37.278Z,3.80
2023-02-17T00:56:04.860Z,3.15
2023-02-17T00:58:31.564Z,3.63
2023-02-17T01:01:00.601Z,3.40
2023-02-17T01:03:29.416Z,3.22
2023-02-17T01:05:56.789Z,3.42
2023-02-17T01:08:25.796Z,3.25
2023-02-17T01:10:53.196Z,3.08
2023-02-17T01:13:22.044Z,3.22
2023-02-17T01:15:51.538Z,3.38
2023-02-17T01:18:20.175Z,3.50
2023-02-17T01:20:46.715Z,3.42
2023-02-17T01:23:14.475Z,3.47
2023-02-17T01:25:43.917Z,3.28
2023-02-17T01:28:15.974Z,2.85
2023-02-17T01:30:42.601Z,3.10
2023-02-17T01:33:09.431Z,3.33
2023-02-17T01:35:40.543Z,2.67
2023-02-17T01:38:07.088Z,3.17
2023-02-17T01:40:33.612Z,3.00
2023-02-17T01:43:01.833Z,2.95
2023-02-17T01:45:33.927Z,3.05
2023-02-17T01:48:05.592Z,3.28
2023-02-17T01:50:38.968Z,2.83
2023-02-17T01:53:11.422Z,2.95
2023-02-17T01:55:40.646Z,3.40
2023-02-17T01:58:23.596Z,2.80
2023-02-17T02:00:54.522Z,2.75
2023-02-17T02:03:21.285Z,3.03
2023-02-17T02:05:48.013Z,2.72
2023-02-17T02:08:15.329Z,2.90
2023-02-17T02:10:41.808Z,2.83
2023-02-17T02:13:10.770Z,2.95
2023-02-17T02:15:46.022Z,2.70
2023-02-17T02:18:12.714Z,2.83
2023-02-17T02:21:16.900Z,2.60
2023-02-17T02:24:10.438Z,2.50
2023-02-17T02:27:09.141Z,2.95
2023-02-17T02:30:07.887Z,2.30
2023-02-17T02:32:57.085Z,2.22
2023-02-17T02:35:48.413Z,2.35
2023-02-17T02:38:22.205Z,2.53
2023-02-17T02:41:02.493Z,2.50
2023-02-17T02:43:33.912Z,2.92
2023-02-17T02:46:00.559Z,2.90
2023-02-17T02:48:33.948Z,2.60
2023-02-17T02:51:25.485Z,2.58
2023-02-17T02:54:05.338Z,2.75
2023-02-17T02:57:02.919Z,3.40
2023-02-17T02:59:34.469Z,3.25
2023-02-17T03:02:27.612Z,3.78
2023-02-17T03:05:24.079Z,3.50
2023-02-17T03:08:00.851Z,4.18
2023-02-17T03:10:29.659Z,3.83
2023-02-17T03:12:57.233Z,3.63
2023-02-17T03:15:23.696Z,3.75
2023-02-17T03:17:54.564Z,3.60
2023-02-17T03:20:22.081Z,3.92
2023-02-17T03:22:52.409Z,3.38
2023-02-17T03:25:21.270Z,3.83
2023-02-17T03:27:47.928Z,3.60
2023-02-17T03:30:15.067Z,3.70
2023-02-17T03:32:41.873Z,3.67
2023-02-17T03:35:09.509Z,4.68
2023-02-17T03:37:36.113Z,3.97
2023-02-17T03:40:04.664Z,3.80
2023-02-17T03:42:32.232Z,3.65
2023-02-17T03:44:58.704Z,3.75
2023-02-17T03:47:30.712Z,3.63
2023-02-17T03:49:57.216Z,3.45
2023-02-17T03:52:23.667Z,3.92
2023-02-17T03:54:54.693Z,3.70
2023-02-17T03:57:21.228Z,3.97
2023-02-17T03:59:47.764Z,3.17
2023-02-17T04:02:14.653Z,3.50
2023-02-17T04:04:41.132Z,3.70
2023-02-17T04:07:07.983Z,3.28
2023-02-17T04:09:36.375Z,3.58
2023-02-17T04:12:07.703Z,3.35
2023-02-17T04:14:34.199Z,3.00
2023-02-17T04:17:01.226Z,3.55
2023-02-17T04:19:27.898Z,3.30
2023-02-17T04:21:54.500Z,4.07
2023-02-17T04:24:21.269Z,4.00
2023-02-17T04:26:48.015Z,3.65
2023-02-17T04:29:16.887Z,4.07
2023-02-17T04:31:45.538Z,3.67
2023-02-17T04:34:12.320Z,3.35
2023-02-17T04:36:38.803Z,3.85
2023-02-17T04:39:07.077Z,3.30
2023-02-17T04:41:33.565Z,3.60
2023-02-17T04:44:00.093Z,3.60
2023-02-17T04:46:28.495Z,3.53
2023-02-17T04:48:55.180Z,3.60
2023-02-17T04:51:22.024Z,3.38
2023-02-17T04:53:50.441Z,3.28
2023-02-17T04:56:16.969Z,3.40
2023-02-17T04:58:43.906Z,3.30
2023-02-17T05:01:17.177Z,3.45
2023-02-17T05:03:43.757Z,3.53
2023-02-17T05:06:10.298Z,3.88
2023-02-17T05:08:38.541Z,3.47
2023-02-17T05:11:06.993Z,3.45
2023-02-17T05:13:33.527Z,3.70
2023-02-17T05:16:00.232Z,3.55
2023-02-17T05:18:26.814Z,3.78
2023-02-17T05:20:53.296Z,3.65
2023-02-17T05:23:32.353Z,3.40
2023-02-17T05:25:59.413Z,3.60
2023-02-17T05:28:25.927Z,3.58
2023-02-17T05:30:54.476Z,3.50
2023-02-17T05:33:24.339Z,2.85
2023-02-17T05:35:50.830Z,3.08
2023-02-17T05:38:19.476Z,2.58
2023-02-17T05:40:45.966Z,2.95
2023-02-17T05:43:14.748Z,2.67
2023-02-17T05:45:41.264Z,3.03
2023-02-17T05:48:07.774Z,2.72
2023-02-17T05:50:34.295Z,3.10
2023-02-17T05:53:02.564Z,3.03
2023-02-17T05:55:32.568Z,3.00
2023-02-17T05:57:59.398Z,2.75
2023-02-17T06:00:26.327Z,2.95
2023-02-17T06:02:53.131Z,2.53
2023-02-17T06:05:22.004Z,2.53
2023-02-17T06:07:50.384Z,2.63
2023-02-17T06:10:16.999Z,2.80
2023-02-17T06:12:43.596Z,2.70
2023-02-17T06:15:10.353Z,2.42
2023-02-17T06:17:41.093Z,2.70
2023-02-17T06:20:08.585Z,2.20
2023-02-17T06:22:35.331Z,2.97
2023-02-17T06:25:01.908Z,2.70
2023-02-17T06:27:28.439Z,2.80
2023-02-17T06:30:01.715Z,2.65
2023-02-17T06:32:28.326Z,2.67
2023-02-17T06:34:54.828Z,2.55
2023-02-17T06:37:21.453Z,2.95
2023-02-17T06:39:47.964Z,2.67
2023-02-17T06:42:14.697Z,3.00
2023-02-17T06:44:41.291Z,3.10
2023-02-17T06:47:07.797Z,2.72
2023-02-17T06:49:34.291Z,2.88
2023-02-17T06:52:07.407Z,2.20
2023-02-17T06:54:33.860Z,2.67
2023-02-17T06:57:00.383Z,3.15
2023-02-17T06:59:27.089Z,3.60
2023-02-17T07:01:55.517Z,3.35
2023-02-17T07:04:22.141Z,3.90
2023-02-17T07:06:50.356Z,3.47
2023-02-17T07:09:17.171Z,4.15
2023-02-17T07:11:45.247Z,3.55
2023-02-17T07:14:13.511Z,3.17
2023-02-17T07:16:40.194Z,4.00
2023-02-17T07:19:06.815Z,3.80
2023-02-17T07:21:33.296Z,3.70
2023-02-17T07:23:59.756Z,3.65
2023-02-17T07:26:26.254Z,3.92
2023-02-17T07:28:59.216Z,4.07
2023-02-17T07:31:25.892Z,3.88
2023-02-17T07:33:52.580Z,3.42
2023-02-17T07:36:27.400Z,3.50
2023-02-17T07:38:54.302Z,3.35
2023-02-17T07:41:33.828Z,3.08
2023-02-17T07:44:00.481Z,3.20
2023-02-17T07:46:29.246Z,3.35
2023-02-17T07:48:59.277Z,3.28
2023-02-17T07:51:25.925Z,3.63
2023-02-17T07:53:53.438Z,3.38
2023-02-17T07:56:23.415Z,3.17
2023-02-17T07:58:50.215Z,3.45
2023-02-17T08:01:20.380Z,3.13
2023-02-17T08:03:47.936Z,3.38
2023-02-17T08:06:16.693Z,3.08
2023-02-17T08:09:01.890Z,3.40
2023-02-17T08:11:48.983Z,2.85
2023-02-17T08:14:18.571Z,2.85
2023-02-17T08:16:45.299Z,3.53
2023-02-17T08:19:11.840Z,3.00
2023-02-17T08:21:50.765Z,3.15
2023-02-17T08:24:19.805Z,3.00
2023-02-17T08:26:47.133Z,2.42
2023-02-17T08:29:15.587Z,3.00
2023-02-17T08:31:42.811Z,2.58
2023-02-17T08:37:07.414Z,2.40
2023-02-17T08:39:35.441Z,2.45
2023-02-17T08:42:02.801Z,2.30
2023-02-17T08:44:31.526Z,2.33
2023-02-17T08:46:57.975Z,2.50
2023-02-17T08:49:26.989Z,2.70
2023-02-17T08:51:54.042Z,2.22
2023-02-17T08:54:20.497Z,2.17
2023-02-17T08:56:47.002Z,2.33
2023-02-17T08:59:15.936Z,2.28
2023-02-17T09:01:43.454Z,1.88
2023-02-17T09:04:13.142Z,2.70
2023-02-17T09:06:44.666Z,2.90
2023-02-17T09:09:13.957Z,2.50
2023-02-17T09:11:44.748Z,2.47
2023-02-17T09:14:11.648Z,2.67
2023-02-17T09:16:40.340Z,2.67
2023-02-17T09:19:07.826Z,2.40
2023-02-17T09:21:36.181Z,3.00
2023-02-17T09:24:02.668Z,3.10
2023-02-17T09:26:29.275Z,2.58
2023-02-17T09:29:00.345Z,2.90
2023-02-17T09:31:27.371Z,2.90
2023-02-17T09:33:55.231Z,3.05
2023-02-17T09:36:33.628Z,3.00
2023-02-17T09:39:01.688Z,3.30
2023-02-17T09:41:33.037Z,3.38
2023-02-17T09:44:02.622Z,3.70
2023-02-17T09:46:49.759Z,3.45
2023-02-17T09:49:32.029Z,3.83
2023-02-17T09:52:22.627Z,3.13
2023-02-17T09:55:11.241Z,3.53
2023-02-17T09:57:51.320Z,3.40
2023-02-17T10:00:34.428Z,3.55
2023-02-17T10:03:27.219Z,3.33
2023-02-17T10:06:16.954Z,3.70
2023-02-17T10:08:54.341Z,3.22
2023-02-17T10:11:31.504Z,2.92
2023-02-17T10:14:03.209Z,3.42
2023-02-17T10:16:38.513Z,3.13
2023-02-17T10:19:14.393Z,3.05
2023-02-17T10:24:12.985Z,3.05
2023-02-17T10:26:51.101Z,2.88
2023-02-17T10:29:20.454Z,3.10
2023-02-17T10:32:04.573Z,3.15
2023-02-17T10:34:38.392Z,3.47
2023-02-17T10:37:28.657Z,3.35
2023-02-17T10:39:58.610Z,2.75
2023-02-17T10:42:32.458Z,3.15
2023-02-17T10:45:13.075Z,3.63
2023-02-17T10:47:42.602Z,3.10
2023-02-17T10:50:23.529Z,3.25
2023-02-17T10:52:51.403Z,3.47
2023-02-17T10:55:38.113Z,3.55
2023-02-17T10:58:34.486Z,3.35
2023-02-17T11:01:06.171Z,3.33
2023-02-17T11:03:34.473Z,3.00
2023-02-17T11:06:04.743Z,3.40
2023-02-17T11:08:34.284Z,2.97
2023-02-17T11:11:21.448Z,2.55
2023-02-17T11:14:13.548Z,3.55
2023-02-17T11:16:52.393Z,3.13
2023-02-17T11:19:25.345Z,2.85
2023-02-17T11:21:58.746Z,3.10
2023-02-17T11:24:26.742Z,2.65
2023-02-17T11:27:05.961Z,3.10
2023-02-17T11:29:34.182Z,2.60
2023-02-17T11:32:14.489Z,2.70
2023-02-17T11:34:43.790Z,2.65
2023-02-17T11:37:22.462Z,2.75
2023-02-17T11:39:53.370Z,2.45
2023-02-17T11:42:32.362Z,2.40
2023-02-17T11:45:12.117Z,2.70
2023-02-17T11:48:13.547Z,2.55
2023-02-17T11:50:55.180Z,2.42
2023-02-17T11:53:53.274Z,2.20
2023-02-17T11:56:25.323Z,2.40
2023-02-17T11:59:29.255Z,2.30
2023-02-17T12:02:24.977Z,2.60
2023-02-17T12:05:12.772Z,2.60
2023-02-17T12:08:01.263Z,2.30
2023-02-17T12:11:00.705Z,2.30
2023-02-17T12:13:42.375Z,2.40
2023-02-17T12:16:22.818Z,2.50
2023-02-17T12:19:14.062Z,2.50
2023-02-17T12:21:55.679Z,2.40
2023-02-17T12:24:50.699Z,2.80
2023-02-17T12:27:50.549Z,2.17
2023-02-17T12:30:47.865Z,2.30
2023-02-17T12:33:38.982Z,2.35
2023-02-17T12:36:14.757Z,2.40
2023-02-17T12:41:53.639Z,2.10
2023-02-17T12:44:34.291Z,2.08
2023-02-17T12:47:06.257Z,2.28
2023-02-17T12:49:40.136Z,2.58
2023-02-17T12:52:21.263Z,2.25
2023-02-17T12:54:56.602Z,2.92
2023-02-17T12:57:41.582Z,2.53
2023-02-17T13:00:21.345Z,2.40
2023-02-17T13:02:48.358Z,2.50
2023-02-17T13:05:29.432Z,2.22
2023-02-17T13:08:06.560Z,2.50
2023-02-17T13:10:39.004Z,2.10
2023-02-17T13:13:35.623Z,2.33
2023-02-17T13:16:12.794Z,2.55
2023-02-17T13:19:07.239Z,2.33
2023-02-17T13:21:35.621Z,2.08
2023-02-17T13:24:07.554Z,2.25
2023-02-17T13:26:41.552Z,1.80
2023-02-17T13:29:21.048Z,2.10
2023-02-17T13:31:56.966Z,1.92
2023-02-17T13:34:27.385Z,2.00
2023-02-17T13:36:54.418Z,2.13
2023-02-17T13:39:35.992Z,2.25
2023-02-17T13:42:03.418Z,2.38
2023-02-17T13:44:33.711Z,2.10
2023-02-17T13:47:07.752Z,2.50
2023-02-17T13:49:40.269Z,2.47
2023-02-17T13:52:13.377Z,1.98
2023-02-17T13:54:41.999Z,2.20
2023-02-17T13:57:30.802Z,2.05
2023-02-17T14:00:13.233Z,2.38
2023-02-17T14:02:48.042Z,2.55
2023-02-17T14:05:35.066Z,2.17
2023-02-17T14:08:20.190Z,2.20
2023-02-17T14:10:47.349Z,2.50
2023-02-17T14:13:14.353Z,2.00
2023-02-17T14:15:58.205Z,2.10
2023-02-17T14:18:45.110Z,2.33
2023-02-17T14:21:24.577Z,2.28
2023-02-17T14:23:54.391Z,2.00
2023-02-17T14:26:39.456Z,2.15
2023-02-17T14:29:09.319Z,1.92
2023-02-17T14:31:43.611Z,2.60
2023-02-17T14:34:31.106Z,2.38
2023-02-17T14:37:19.267Z,1.92
2023-02-17T14:39:48.476Z,2.20
2023-02-17T14:42:15.037Z,2.38
2023-02-17T14:44:42.620Z,1.90
2023-02-17T14:47:09.358Z,2.28
2023-02-17T14:49:35.835Z,2.20
2023-02-17T14:52:20.143Z,2.45
2023-02-17T14:54:47.038Z,2.45
2023-02-17T14:57:15.199Z,2.33
2023-02-17T14:59:44.511Z,2.13
2023-02-17T15:02:16.700Z,2.42
2023-02-17T15:04:45.214Z,2.47
2023-02-17T15:07:19.085Z,2.60
2023-02-17T15:09:47.394Z,2.50
2023-02-17T15:12:17.562Z,2.30
2023-02-17T15:14:44.191Z,2.28
2023-02-17T15:17:10.696Z,2.22
2023-02-17T15:19:37.234Z,2.08
2023-02-17T15:22:04.706Z,2.28
2023-02-17T15:24:33.900Z,2.28
2023-02-17T15:27:09.506Z,2.30
2023-02-17T15:29:36.642Z,2.30
2023-02-17T15:32:13.260Z,2.10
2023-02-17T15:34:39.872Z,2.00
2023-02-17T15:37:06.393Z,2.42
2023-02-17T15:39:33.111Z,1.95
2023-02-17T15:42:11.029Z,3.22
2023-02-17T15:44:51.418Z,2.05
2023-02-17T15:47:20.623Z,2.40
2023-02-17T15:49:47.305Z,2.03
2023-02-17T15:52:17.818Z,2.08
2023-02-17T15:54:44.411Z,2.30
2023-02-17T15:57:39.171Z,2.33
2023-02-17T16:00:17.601Z,2.30
2023-02-17T16:02:47.856Z,2.25
2023-02-17T16:05:16.670Z,2.05
2023-02-17T16:07:43.690Z,2.10
2023-02-17T16:10:13.271Z,2.47
2023-02-17T16:12:40.564Z,2.15
2023-02-17T16:15:13.521Z,2.20
2023-02-17T16:17:40.133Z,2.22
2023-02-17T16:20:14.003Z,2.33
2023-02-17T16:22:40.482Z,2.20
2023-02-17T16:25:07.189Z,2.35
2023-02-17T16:27:33.693Z,2.63
2023-02-17T16:30:00.924Z,2.55
2023-02-17T16:32:35.198Z,2.47
2023-02-17T16:35:01.752Z,2.80
2023-02-17T16:37:28.254Z,2.60
2023-02-17T16:39:56.765Z,2.70
2023-02-17T16:42:23.216Z,2.97
2023-02-17T16:44:50.324Z,3.33
2023-02-17T16:47:24.250Z,3.00
2023-02-17T16:49:54.410Z,2.63
2023-02-17T16:52:26.873Z,3.78
2023-02-17T16:54:54.465Z,3.55
2023-02-17T16:57:21.690Z,3.30
2023-02-17T16:59:54.808Z,3.33
2023-02-17T17:02:22.223Z,2.92
2023-02-17T17:04:48.806Z,2.65
2023-02-17T17:07:18.425Z,2.58
2023-02-17T17:09:52.449Z,2.55
2023-02-17T17:12:33.452Z,3.33
2023-02-17T17:15:02.746Z,2.40
2023-02-17T17:17:30.341Z,2.50
2023-02-17T17:19:57.052Z,3.00
2023-02-17T17:22:23.973Z,2.63
2023-02-17T17:24:50.456Z,2.75
2023-02-17T17:27:21.373Z,2.97
2023-02-17T17:29:47.893Z,2.70
2023-02-17T17:32:14.489Z,4.25
2023-02-17T17:34:43.328Z,3.80
2023-02-17T17:37:10.387Z,4.13
2023-02-17T17:39:37.130Z,4.05
2023-02-17T17:42:05.528Z,3.50
2023-02-17T17:44:32.080Z,3.38
2023-02-17T17:47:00.861Z,3.35
2023-02-17T17:49:27.475Z,3.35
2023-02-17T17:51:53.947Z,3.92
2023-02-17T17:54:20.454Z,3.85
2023-02-17T17:56:53.168Z,4.07
2023-02-17T17:59:19.777Z,4.18
2023-02-17T18:01:46.350Z,4.03
2023-02-17T18:04:15.377Z,4.93
2023-02-17T18:06:45.785Z,4.68
2023-02-17T18:09:31.715Z,3.90
2023-02-17T18:12:03.084Z,4.32
2023-02-17T18:14:29.958Z,4.47
2023-02-17T18:16:58.090Z,4.50
2023-02-17T18:19:24.808Z,4.65
2023-02-17T18:21:53.497Z,4.80
2023-02-17T18:24:21.984Z,4.95
2023-02-17T18:26:51.913Z,4.18
2023-02-17T18:29:19.400Z,4.88
2023-02-17T18:31:46.209Z,4.25
2023-02-17T18:34:12.998Z,3.97
2023-02-17T18:36:41.275Z,3.90
2023-02-17T18:39:07.820Z,3.42
2023-02-17T18:41:35.037Z,3.80
2023-02-17T18:44:05.305Z,4.07
2023-02-17T18:46:33.304Z,3.28
2023-02-17T18:49:00.555Z,3.55
2023-02-17T18:51:27.851Z,3.40
2023-02-17T18:53:56.574Z,3.78
2023-02-17T18:56:25.730Z,3.50
2023-02-17T18:58:55.274Z,3.38
2023-02-17T19:01:32.183Z,3.30
2023-02-17T19:04:03.595Z,3.55
2023-02-17T19:06:34.179Z,3.20
2023-02-17T19:09:04.390Z,3.50
2023-02-17T19:11:31.830Z,3.72
2023-02-17T19:14:01.196Z,3.35
2023-02-17T19:16:29.712Z,3.22
2023-02-17T19:18:56.780Z,2.92
2023-02-17T19:21:26.954Z,2.38
2023-02-17T19:23:54.861Z,2.63
2023-02-17T19:26:22.095Z,2.83
2023-02-17T19:28:48.945Z,2.97
2023-02-17T19:31:18.486Z,2.83
2023-02-17T19:33:51.874Z,3.15
2023-02-17T19:36:21.293Z,3.30
2023-02-17T19:38:48.952Z,3.90
2023-02-17T19:41:18.307Z,3.90
2023-02-17T19:43:45.350Z,3.80
2023-02-17T19:46:18.339Z,3.80
2023-02-17T19:48:47.146Z,3.97
2023-02-17T19:51:15.885Z,3.47
2023-02-17T19:53:43.512Z,3.72
2023-02-17T19:56:15.574Z,3.50
2023-02-17T19:58:43.306Z,3.63
2023-02-17T20:01:20.128Z,3.85
2023-02-17T20:03:48.757Z,3.75
2023-02-17T20:06:21.584Z,3.80
2023-02-17T20:08:52.809Z,3.90
2023-02-17T20:11:21.196Z,4.03
2023-02-17T20:13:48.072Z,4.03
2023-02-17T20:16:16.161Z,3.92
2023-02-17T20:18:46.007Z,4.18
2023-02-17T20:21:21.460Z,4.22
2023-02-17T20:23:48.712Z,4.88
2023-02-17T20:26:18.194Z,5.05
2023-02-17T20:28:46.710Z,5.25
2023-02-17T20:31:14.222Z,4.97
2023-02-17T20:33:41.272Z,5.55
2023-02-17T20:36:13.219Z,5.00
2023-02-17T20:38:40.923Z,4.85
2023-02-17T20:41:09.021Z,4.50
2023-02-17T20:43:39.587Z,4.82
2023-02-17T20:46:06.781Z,4.55
2023-02-17T20:48:33.788Z,4.82
2023-02-17T20:51:00.515Z,4.30
2023-02-17T20:53:27.133Z,4.18
2023-02-17T20:55:53.735Z,3.97
2023-02-17T20:58:21.068Z,3.92
2023-02-17T21:00:49.855Z,3.83
2023-02-17T21:03:16.602Z,4.03
2023-02-17T21:05:43.278Z,4.13
2023-02-17T21:08:09.951Z,3.78
2023-02-17T21:10:36.574Z,4.70
2023-02-17T21:13:09.973Z,4.25
2023-02-17T21:15:43.608Z,4.68
2023-02-17T21:18:10.339Z,4.15
2023-02-17T21:20:37.382Z,4.47
2023-02-17T21:23:03.969Z,4.70
2023-02-17T21:25:30.614Z,4.78
2023-02-17T21:27:59.398Z,3.70
2023-02-17T21:30:30.264Z,3.97
2023-02-17T21:32:56.977Z,3.97
2023-02-17T21:35:25.507Z,3.78
2023-02-17T21:37:54.851Z,3.38
2023-02-17T21:40:21.800Z,3.65
2023-02-17T21:43:06.806Z,3.60
2023-02-17T21:45:37.604Z,3.22
2023-02-17T21:48:04.982Z,2.90
2023-02-17T21:50:33.368Z,3.15
2023-02-17T21:52:59.893Z,3.00
2023-02-17T21:55:26.678Z,2.95
2023-02-17T21:57:55.456Z,3.33
2023-02-17T22:00:22.053Z,2.72
2023-02-17T22:02:48.825Z,3.03
2023-02-17T22:05:17.186Z,3.10
2023-02-17T22:07:43.692Z,2.97
2023-02-17T22:10:10.335Z,3.08
2023-02-17T22:12:37.426Z,2.70
2023-02-17T22:15:05.772Z,3.25
2023-02-17T22:17:34.309Z,3.45
2023-02-17T22:20:00.930Z,3.15
2023-02-17T22:22:27.458Z,2.97
2023-02-17T22:24:54.194Z,3.10
2023-02-17T22:27:20.978Z,3.47
2023-02-17T22:29:47.504Z,3.25
2023-02-17T22:32:14.032Z,3.17
2023-02-17T22:34:42.541Z,3.42
2023-02-17T22:37:09.106Z,2.80
2023-02-17T22:39:35.604Z,3.22
2023-02-17T22:42:02.914Z,3.17
2023-02-17T22:44:29.836Z,3.33
2023-02-17T22:46:56.437Z,3.03
2023-02-17T22:49:23.216Z,3.08
2023-02-17T22:51:49.677Z,3.10
2023-02-17T22:54:16.173Z,2.90
2023-02-17T22:56:44.439Z,3.25
2023-02-17T22:59:11.020Z,2.65
2023-02-17T23:01:37.931Z,2.85
2023-02-17T23:04:07.419Z,3.28
2023-02-17T23:06:36.272Z,2.63
2023-02-17T23:09:04.850Z,3.00
2023-02-17T23:11:51.442Z,3.20
2023-02-17T23:14:48.692Z,2.70
2023-02-17T23:17:21.955Z,2.47
2023-02-17T23:19:48.470Z,2.50
2023-02-17T23:22:17.464Z,2.80
2023-02-17T23:24:45.406Z,2.85
2023-02-17T23:27:12.830Z,2.95
2023-02-17T23:29:40.693Z,2.45
2023-02-17T23:32:08.211Z,2.45
2023-02-17T23:34:34.867Z,2.28
2023-02-17T23:37:04.366Z,2.33
2023-02-17T23:39:31.049Z,1.88
2023-02-17T23:41:57.548Z,2.65
2023-02-17T23:44:24.051Z,2.05
2023-02-17T23:46:52.309Z,2.50
2023-02-17T23:49:18.842Z,2.00
2023-02-17T23:51:47.002Z,2.15
2023-02-17T23:54:16.440Z,2.10
2023-02-17T23:56:43.201Z,2.10
2023-02-17T23:59:12.232Z,2.30
